Time;durP1;ratioP1;P1;durP2;ratioP2;P2;SDS_P1;SDS_P2;PMS_P1;PMS_P2;Temp;Humidity;BMP_temperature;BMP_pressure;BME280_temperature;BME280_humidity;BME280_pressure;Samples;Min_cycle;Max_cycle;Signal;HPM_P1;HPM_P2
2023/12/28 00:03:58;;;;;;;5.70;2.83;;;10.60;1.60;;;;;;20676796;28;20050;-40
2023/12/28 00:13:58;;;;;;;8.65;3.00;;;10.60;5.50;;;;;;20678658;28;20488;-40
2023/12/28 00:23:59;;;;;;;7.20;2.88;;;10.60;14.20;;;;;;20673993;28;20097;-40
2023/12/28 00:33:59;;;;;;;7.65;3.15;;;10.70;17.70;;;;;;20673805;28;20057;-40
2023/12/28 00:44:01;;;;;;;8.35;3.17;;;10.80;21.60;;;;;;20671695;28;20050;-40
2023/12/28 00:54:02;;;;;;;7.82;2.78;;;10.70;24.70;;;;;;20670708;28;20042;-40
2023/12/28 01:04:02;;;;;;;7.22;2.70;;;10.60;26.10;;;;;;20668608;28;20038;-40
2023/12/28 01:14:03;;;;;;;7.67;2.67;;;10.60;29.20;;;;;;20668355;28;20053;-40
2023/12/28 01:24:04;;;;;;;6.68;2.83;;;10.60;29.70;;;;;;20666140;28;20450;-40
2023/12/28 01:34:04;;;;;;;8.55;2.40;;;10.60;29.10;;;;;;20668931;28;20042;-40
2023/12/28 01:44:06;;;;;;;5.77;2.07;;;10.60;27.70;;;;;;20668798;28;20082;-39
2023/12/28 01:54:07;;;;;;;6.15;2.85;;;10.60;24.00;;;;;;20668750;28;20459;-39
2023/12/28 02:04:08;;;;;;;8.13;2.77;;;10.60;23.80;;;;;;20667569;28;20046;-39
2023/12/28 02:14:08;;;;;;;6.35;2.80;;;10.70;21.10;;;;;;20668681;28;20446;-39
2023/12/28 02:24:09;;;;;;;7.83;2.10;;;10.70;17.70;;;;;;20683834;28;20053;-40
2023/12/28 02:34:16;;;;;;;7.78;2.35;;;10.80;13.40;;;;;;20680390;28;20052;-40
2023/12/28 02:44:16;;;;;;;6.03;2.30;;;10.90;11.00;;;;;;20684538;28;20054;-39
2023/12/28 02:54:17;;;;;;;6.03;2.50;;;10.80;11.00;;;;;;20681761;28;20308;-39
2023/12/28 03:04:17;;;;;;;10.00;2.55;;;10.80;10.30;;;;;;20681449;28;20049;-39
2023/12/28 03:14:18;;;;;;;9.10;2.30;;;10.80;10.90;;;;;;20680297;28;20045;-39
2023/12/28 03:24:18;;;;;;;5.35;2.03;;;10.70;11.10;;;;;;20680227;28;20047;-39
2023/12/28 03:34:19;;;;;;;6.57;2.17;;;10.80;10.50;;;;;;20681328;28;20508;-39
2023/12/28 03:44:20;;;;;;;8.77;2.10;;;10.70;11.40;;;;;;20682718;28;20401;-39
2023/12/28 03:54:21;;;;;;;8.25;2.20;;;10.60;12.10;;;;;;20678978;28;20049;-39
2023/12/28 04:04:21;;;;;;;7.68;2.33;;;10.60;12.80;;;;;;20678052;28;20383;-40
2023/12/28 04:14:22;;;;;;;10.63;2.13;;;10.50;12.10;;;;;;20675655;28;20056;-39
2023/12/28 04:24:22;;;;;;;8.13;2.92;;;10.60;12.00;;;;;;20674384;28;20932;-39
2023/12/28 04:34:23;;;;;;;10.60;2.22;;;10.70;9.60;;;;;;20671551;28;20077;-39
2023/12/28 04:44:25;;;;;;;10.30;2.45;;;10.70;8.20;;;;;;20669326;28;20124;-39
2023/12/28 04:54:26;;;;;;;5.38;1.77;;;10.80;3.90;;;;;;20671097;28;20050;-39
2023/12/28 05:04:26;;;;;;;13.48;2.72;;;10.90;1.00;;;;;;20669299;28;20076;-39
2023/12/28 05:14:27;;;;;;;5.75;1.88;;;11.00;1.00;;;;;;20666285;28;20541;-39
2023/12/28 05:24:27;;;;;;;13.27;1.80;;;11.10;1.00;;;;;;20668336;28;20418;-39
2023/12/28 05:34:28;;;;;;;11.25;2.35;;;11.10;1.00;;;;;;20666387;28;20050;-39
2023/12/28 05:44:28;;;;;;;10.55;1.88;;;11.10;1.00;;;;;;20667040;28;20038;-39
2023/12/28 05:54:29;;;;;;;13.50;1.75;;;11.20;1.00;;;;;;20666910;28;20050;-39
2023/12/28 06:04:31;;;;;;;11.60;2.13;;;11.20;1.00;;;;;;20663371;28;20054;-39
2023/12/28 06:14:31;;;;;;;9.95;1.45;;;11.30;1.00;;;;;;20666522;28;20489;-39
2023/12/28 06:24:32;;;;;;;13.90;2.85;;;11.20;1.00;;;;;;20666903;28;20054;-39
2023/12/28 06:34:32;;;;;;;12.48;2.10;;;11.30;1.00;;;;;;20666810;28;20037;-39
2023/12/28 06:44:33;;;;;;;12.57;2.42;;;11.30;1.00;;;;;;20667053;28;20042;-40
2023/12/28 06:54:33;;;;;;;14.80;2.55;;;11.30;1.00;;;;;;20666083;28;20042;-39
2023/12/28 07:04:34;;;;;;;12.85;2.22;;;11.40;1.00;;;;;;20671212;28;20045;-39
2023/12/28 07:14:36;;;;;;;14.73;3.03;;;11.30;1.00;;;;;;20680762;28;20068;-39
2023/12/28 07:24:36;;;;;;;19.58;2.35;;;11.20;1.00;;;;;;20679532;28;20077;-40
2023/12/28 07:34:37;;;;;;;14.15;2.28;;;11.10;1.00;;;;;;20679131;28;20042;-39
2023/12/28 07:44:37;;;;;;;11.13;2.15;;;11.10;1.00;;;;;;20679447;28;20045;-39
2023/12/28 07:54:38;;;;;;;20.42;2.45;;;11.10;1.00;;;;;;20678376;28;20399;-41
2023/12/28 08:04:39;;;;;;;14.18;2.22;;;11.10;1.00;;;;;;20678147;28;20502;-39
2023/12/28 08:14:39;;;;;;;13.27;2.33;;;11.10;1.00;;;;;;20676805;28;20038;-39
2023/12/28 08:24:40;;;;;;;12.20;2.13;;;11.10;1.00;;;;;;20676024;28;20050;-39
2023/12/28 08:34:40;;;;;;;12.20;1.63;;;11.20;1.00;;;;;;20675327;28;20050;-40
2023/12/28 08:44:41;;;;;;;18.63;3.00;;;11.20;1.00;;;;;;20677671;28;20038;-40
2023/12/28 08:54:42;;;;;;;19.65;2.72;;;11.20;1.00;;;;;;20673330;28;20050;-38
2023/12/28 09:04:43;;;;;;;15.98;3.03;;;11.20;1.00;;;;;;20675054;28;20092;-39
2023/12/28 09:14:43;;;;;;;14.37;2.63;;;11.20;1.00;;;;;;20670721;28;20045;-39
2023/12/28 09:24:44;;;;;;;16.00;2.03;;;11.20;1.00;;;;;;20672889;28;20047;-39
2023/12/28 09:34:44;;;;;;;13.32;1.80;;;11.20;1.00;;;;;;20668636;28;20039;-39
2023/12/28 09:44:45;;;;;;;15.43;2.45;;;11.30;1.00;;;;;;20670621;28;20494;-39
2023/12/28 09:54:46;;;;;;;17.02;2.10;;;11.40;1.00;;;;;;20650431;28;20049;-39
2023/12/28 10:04:46;;;;;;;14.38;2.05;;;11.40;1.00;;;;;;20669586;28;20042;-39
2023/12/28 10:14:47;;;;;;;16.63;2.72;;;11.40;1.00;;;;;;20667684;28;20046;-39
2023/12/28 10:24:47;;;;;;;13.63;2.35;;;11.30;1.00;;;;;;20667925;28;20663;-39
2023/12/28 10:34:48;;;;;;;14.60;2.70;;;11.20;1.00;;;;;;20668900;28;20430;-39
2023/12/28 10:44:52;;;;;;;15.27;3.47;;;11.30;1.00;;;;;;20681837;28;20050;-39
2023/12/28 10:55:03;;;;;;;14.40;2.25;;;11.50;1.00;;;;;;20683739;28;20060;-39
2023/12/28 11:05:06;;;;;;;14.35;2.22;;;11.60;1.00;;;;;;20682719;28;21553;-39
2023/12/28 11:15:09;;;;;;;10.10;2.03;;;11.70;1.00;;;;;;20670362;28;20054;-39
2023/12/28 11:25:18;;;;;;;15.73;2.72;;;11.70;1.00;;;;;;20679664;28;20034;-39
2023/12/28 11:35:18;;;;;;;17.92;2.58;;;11.70;1.00;;;;;;20676451;28;20053;-39
2023/12/28 11:45:21;;;;;;;15.05;2.45;;;11.60;1.00;;;;;;20678746;28;20520;-39
2023/12/28 11:55:23;;;;;;;15.02;2.80;;;11.60;1.00;;;;;;20674241;28;20046;-39
2023/12/28 12:05:24;;;;;;;17.55;2.85;;;11.70;1.00;;;;;;20674445;28;20042;-39
2023/12/28 12:15:24;;;;;;;19.13;3.58;;;11.60;1.00;;;;;;20673812;28;20490;-39
2023/12/28 12:25:25;;;;;;;14.00;2.53;;;11.80;1.00;;;;;;20672581;28;20044;-39
2023/12/28 12:35:27;;;;;;;16.15;3.13;;;11.90;1.00;;;;;;20671599;28;20636;-39
2023/12/28 12:45:27;;;;;;;15.77;3.22;;;11.90;1.00;;;;;;20673125;28;20108;-39
2023/12/28 12:55:29;;;;;;;18.45;3.17;;;11.90;1.00;;;;;;20669763;28;20045;-39
2023/12/28 13:05:29;;;;;;;19.17;3.28;;;11.80;1.00;;;;;;20667332;28;20050;-39
2023/12/28 13:15:30;;;;;;;15.50;2.30;;;11.80;1.00;;;;;;20669020;28;20420;-39
2023/12/28 13:25:30;;;;;;;16.02;3.22;;;11.80;1.00;;;;;;20669793;28;20045;-40
2023/12/28 13:35:35;;;;;;;17.90;2.50;;;11.80;1.00;;;;;;20669893;28;20050;-39
2023/12/28 13:45:35;;;;;;;15.50;2.60;;;11.80;1.00;;;;;;20669359;28;20445;-39
2023/12/28 13:55:36;;;;;;;18.20;2.60;;;11.70;1.00;;;;;;20668689;28;20556;-39
2023/12/28 14:05:37;;;;;;;15.45;2.50;;;11.50;1.00;;;;;;20667877;28;20845;-39
2023/12/28 14:15:38;;;;;;;19.20;2.85;;;11.30;1.00;;;;;;20674103;28;20464;-39
2023/12/28 14:25:39;;;;;;;18.67;2.80;;;11.30;1.00;;;;;;20684682;28;20117;-39
2023/12/28 14:35:40;;;;;;;15.90;2.33;;;11.20;1.00;;;;;;20683459;28;20054;-39
2023/12/28 14:45:41;;;;;;;14.65;3.28;;;11.10;1.00;;;;;;20683333;28;20125;-39
2023/12/28 14:55:41;;;;;;;17.75;3.13;;;11.20;1.00;;;;;;20681586;28;20042;-39
2023/12/28 15:05:42;;;;;;;20.63;2.70;;;11.20;1.00;;;;;;20675164;28;20046;-39
2023/12/28 15:15:43;;;;;;;16.00;2.20;;;11.30;1.00;;;;;;20675895;28;20128;-39
2023/12/28 15:25:44;;;;;;;17.77;2.60;;;11.40;1.00;;;;;;20675537;28;20493;-39
2023/12/28 15:35:45;;;;;;;15.65;2.83;;;11.50;1.00;;;;;;20672725;28;20050;-38
2023/12/28 15:45:46;;;;;;;11.13;1.75;;;11.50;1.00;;;;;;20676880;28;20034;-39
2023/12/28 15:55:47;;;;;;;18.13;2.80;;;11.60;1.00;;;;;;20673413;28;20046;-39
2023/12/28 16:05:47;;;;;;;14.75;2.92;;;11.60;1.00;;;;;;20670972;28;20196;-39
2023/12/28 16:15:48;;;;;;;9.35;2.85;;;11.60;1.00;;;;;;20676265;28;20042;-39
2023/12/28 16:25:49;;;;;;;13.48;2.63;;;11.60;1.00;;;;;;20676494;28;20041;-39
2023/12/28 16:35:49;;;;;;;18.90;2.70;;;11.60;1.00;;;;;;20674607;28;20052;-39
2023/12/28 16:45:50;;;;;;;15.75;2.90;;;11.50;1.00;;;;;;20674977;28;20054;-39
2023/12/28 16:55:51;;;;;;;14.52;2.53;;;11.60;1.00;;;;;;20672584;28;20491;-39
2023/12/28 17:05:51;;;;;;;15.23;2.83;;;11.60;1.00;;;;;;20673351;28;20282;-39
2023/12/28 17:15:52;;;;;;;13.52;2.15;;;11.60;1.00;;;;;;20670645;28;20046;-39
2023/12/28 17:26:03;;;;;;;13.93;2.25;;;11.60;1.00;;;;;;20670460;28;20045;-39
2023/12/28 17:36:05;;;;;;;14.15;2.80;;;11.60;1.00;;;;;;20671204;28;20498;-38
2023/12/28 17:46:27;;;;;;;14.85;2.42;;;11.60;1.00;;;;;;20669107;28;20470;-39
2023/12/28 17:56:28;;;;;;;12.13;2.40;;;11.60;1.00;;;;;;20668738;28;20149;-39
2023/12/28 18:06:28;;;;;;;15.23;2.45;;;11.60;1.00;;;;;;20667658;28;20041;-39
2023/12/28 18:16:29;;;;;;;12.48;2.47;;;11.50;1.00;;;;;;20668643;28;20049;-39
2023/12/28 18:26:29;;;;;;;17.05;2.65;;;11.60;1.00;;;;;;20668090;28;20065;-39
2023/12/28 18:36:30;;;;;;;14.20;2.25;;;11.60;1.00;;;;;;20667168;28;20142;-39
2023/12/28 18:46:31;;;;;;;23.70;9.50;;;11.60;1.00;;;;;;20666566;28;20528;-39
2023/12/28 18:56:31;;;;;;;12.93;2.33;;;11.60;1.00;;;;;;20665746;28;20447;-39
2023/12/28 19:06:32;;;;;;;15.32;2.72;;;11.60;1.00;;;;;;20679377;28;20045;-39
2023/12/28 19:16:33;;;;;;;15.98;2.13;;;11.60;1.00;;;;;;20681632;28;20045;-39
2023/12/28 19:26:33;;;;;;;15.43;2.28;;;11.60;1.00;;;;;;20679848;28;20066;-39
2023/12/28 19:36:34;;;;;;;10.35;1.90;;;11.60;1.00;;;;;;20679126;28;20069;-38
2023/12/28 19:46:34;;;;;;;16.92;3.05;;;11.60;1.00;;;;;;20677672;28;20034;-39
2023/12/28 19:56:35;;;;;;;17.93;8.67;;;11.60;1.00;;;;;;20675928;28;20325;-39
2023/12/28 20:06:35;;;;;;;10.82;2.03;;;11.60;1.00;;;;;;20676583;28;20046;-39
2023/12/28 20:16:36;;;;;;;13.77;2.17;;;11.50;1.00;;;;;;20676612;28;20085;-39
2023/12/28 20:26:37;;;;;;;13.52;2.10;;;11.50;1.00;;;;;;20675706;28;20045;-38
2023/12/28 20:36:37;;;;;;;13.80;2.20;;;11.50;1.00;;;;;;20672406;28;20054;-38
2023/12/28 20:46:38;;;;;;;14.05;1.92;;;11.50;1.00;;;;;;20673468;28;20092;-38
2023/12/28 20:56:39;;;;;;;12.35;2.03;;;11.50;1.00;;;;;;20671799;28;20053;-39
2023/12/28 21:06:39;;;;;;;9.48;1.55;;;11.60;1.00;;;;;;20675113;28;20045;-39
2023/12/28 21:16:40;;;;;;;8.15;1.58;;;11.60;1.00;;;;;;20673410;28;20437;-39
2023/12/28 21:26:41;;;;;;;12.90;2.10;;;11.50;1.00;;;;;;20671907;28;20042;-39
2023/12/28 21:36:43;;;;;;;13.65;2.25;;;11.60;1.00;;;;;;20668474;28;20557;-38
2023/12/28 21:46:43;;;;;;;12.55;1.80;;;11.60;1.00;;;;;;20670711;28;20034;-39
2023/12/28 21:56:44;;;;;;;15.15;2.33;;;11.60;1.00;;;;;;20672171;28;20215;-39
2023/12/28 22:06:44;;;;;;;8.82;1.65;;;11.60;1.00;;;;;;20668737;28;20379;-39
2023/12/28 22:16:45;;;;;;;14.13;1.80;;;11.70;1.00;;;;;;20668628;28;20608;-39
2023/12/28 22:26:47;;;;;;;11.70;2.33;;;11.40;1.00;;;;;;20668135;28;20482;-40
2023/12/28 22:36:47;;;;;;;13.32;2.10;;;11.00;1.00;;;;;;20674974;28;20197;-40
2023/12/28 22:46:48;;;;;;;15.70;2.10;;;10.90;1.00;;;;;;20684481;28;20133;-40
2023/12/28 22:56:49;;;;;;;10.85;1.88;;;10.30;22.00;;;;;;20684786;28;20469;-40
2023/12/28 23:06:50;;;;;;;11.15;1.70;;;10.00;51.80;;;;;;20685599;28;20048;-41
2023/12/28 23:16:50;;;;;;;11.60;2.10;;;10.00;73.60;;;;;;20686954;28;20046;-41
2023/12/28 23:26:54;;;;;;;10.90;2.65;;;9.90;84.50;;;;;;20673349;28;20042;-42
2023/12/28 23:36:54;;;;;;;11.93;1.98;;;10.00;73.20;;;;;;20680840;28;20058;-39
2023/12/28 23:46:55;;;;;;;15.80;2.60;;;10.10;62.80;;;;;;20680622;28;20104;-40
2023/12/28 23:56:56;;;;;;;14.38;2.20;;;10.30;44.70;;;;;;20680943;28;20042;-40
